createdAt,value
2022-11-12T00:01:04.053Z,99009.91
2022-11-12T00:03:33.626Z,99011.81
2022-11-12T00:06:01.791Z,99013.72
2022-11-12T00:08:30.495Z,99017.25
2022-11-12T00:10:58.870Z,99018.34
2022-11-12T00:13:27.111Z,99014.38
2022-11-12T00:15:55.611Z,99015.44
2022-11-12T00:18:24.051Z,99016.38
2022-11-12T00:20:53.890Z,99018.13
2022-11-12T00:23:22.090Z,99028.03
2022-11-12T00:25:51.396Z,99029.56
2022-11-12T00:28:19.572Z,99017.94
2022-11-12T00:30:47.775Z,99021.63
2022-11-12T00:33:15.962Z,99021.88
2022-11-12T00:35:44.171Z,99028.03
2022-11-12T00:38:13.763Z,99028.09
2022-11-12T00:40:42.981Z,99032.41
2022-11-12T00:43:11.194Z,99036.63
2022-11-12T00:45:39.414Z,99032.31
2022-11-12T00:48:07.831Z,99040.44
2022-11-12T00:50:36.014Z,99036.72
2022-11-12T00:53:04.277Z,99038.72
2022-11-12T00:55:34.126Z,99035.75
2022-11-12T00:58:02.344Z,99038.38
2022-11-12T01:00:30.569Z,99029.75
2022-11-12T01:02:58.803Z,99032.16
2022-11-12T01:08:13.346Z,99034.91
2022-11-12T01:10:42.939Z,99040.09
2022-11-12T01:13:11.420Z,99045.44
2022-11-12T01:18:28.318Z,99041.97
2022-11-12T01:20:57.556Z,99044.41
2022-11-12T01:23:25.772Z,99044.50
2022-11-12T01:25:55.355Z,99047.00
2022-11-12T01:28:23.701Z,99042.69
2022-11-12T01:30:52.032Z,99042.09
2022-11-12T01:33:20.671Z,99027.31
2022-11-12T01:35:48.886Z,99033.56
2022-11-12T01:38:17.094Z,99035.25
2022-11-12T01:40:45.280Z,99036.41
2022-11-12T01:43:16.582Z,99032.16
2022-11-12T01:45:46.010Z,99033.63
2022-11-12T01:48:15.027Z,99023.97
2022-11-12T01:50:44.842Z,99028.97
2022-11-12T01:53:13.117Z,99030.78
2022-11-12T01:55:41.309Z,99035.44
2022-11-12T01:58:10.955Z,99029.84
2022-11-12T02:00:40.564Z,99029.25
2022-11-12T02:03:12.290Z,99026.72
2022-11-12T02:05:40.551Z,99026.72
2022-11-12T02:08:11.201Z,99020.53
2022-11-12T02:10:39.934Z,99026.47
2022-11-12T02:13:22.207Z,99018.63
2022-11-12T02:15:51.787Z,99020.78
2022-11-12T02:18:19.972Z,99034.97
2022-11-12T02:20:54.924Z,99031.22
2022-11-12T02:23:24.500Z,99032.06
2022-11-12T02:25:56.137Z,99028.53
2022-11-12T02:28:28.653Z,99034.41
2022-11-12T02:30:57.398Z,99033.22
2022-11-12T02:33:25.596Z,99030.47
2022-11-12T02:35:54.089Z,99025.78
2022-11-12T02:38:22.327Z,99005.53
2022-11-12T02:40:52.039Z,99021.81
2022-11-12T02:43:20.289Z,99011.47
2022-11-12T02:45:48.749Z,99020.59
2022-11-12T02:48:19.331Z,99025.78
2022-11-12T02:50:48.818Z,99026.28
2022-11-12T02:53:17.371Z,99023.69
2022-11-12T02:55:45.602Z,99018.34
2022-11-12T02:58:15.169Z,99018.38
2022-11-12T03:00:43.726Z,99018.13
2022-11-12T03:03:11.956Z,99017.53
2022-11-12T03:05:40.163Z,99018.97
2022-11-12T03:08:09.483Z,99014.34
2022-11-12T03:10:38.505Z,99015.00
2022-11-12T03:13:06.780Z,99013.56
2022-11-12T03:15:36.339Z,99007.34
2022-11-12T03:18:04.933Z,99008.38
2022-11-12T03:20:34.906Z,99006.03
2022-11-12T03:23:05.465Z,99001.38
2022-11-12T03:25:33.677Z,98998.09
2022-11-12T03:28:02.876Z,99002.34
2022-11-12T03:30:32.031Z,98997.31
2022-11-12T03:33:01.591Z,98998.19
2022-11-12T03:35:30.088Z,98997.34
2022-11-12T03:37:58.797Z,98994.50
2022-11-12T03:40:27.039Z,98990.78
2022-11-12T03:42:55.256Z,98986.47
2022-11-12T03:45:24.761Z,98982.31
2022-11-12T03:47:54.073Z,98981.72
2022-11-12T03:50:24.379Z,98973.63
2022-11-12T03:52:53.310Z,98975.44
2022-11-12T03:55:22.689Z,98981.81
2022-11-12T03:57:51.215Z,98986.47
2022-11-12T04:00:19.915Z,98976.47
2022-11-12T04:02:48.155Z,98973.28
2022-11-12T04:05:30.424Z,98977.31
2022-11-12T04:08:14.532Z,98982.75
2022-11-12T04:10:42.721Z,98976.91
2022-11-12T04:13:24.721Z,98971.19
2022-11-12T04:16:13.571Z,98975.44
2022-11-12T04:18:55.638Z,98973.72
2022-11-12T04:21:45.720Z,98972.19
2022-11-12T04:24:35.343Z,98970.53
2022-11-12T04:27:03.570Z,98970.09
2022-11-12T04:29:45.876Z,98971.41
2022-11-12T04:32:14.076Z,98968.03
2022-11-12T04:34:42.320Z,98967.00
2022-11-12T04:37:10.550Z,98970.09
2022-11-12T04:39:40.210Z,98964.75
2022-11-12T04:42:24.022Z,98958.81
2022-11-12T04:45:01.539Z,98963.97
2022-11-12T04:47:31.904Z,98957.50
2022-11-12T04:50:00.124Z,98961.22
2022-11-12T04:52:28.531Z,98953.34
2022-11-12T04:54:58.527Z,98952.31
2022-11-12T04:57:26.990Z,98953.97
2022-11-12T04:59:55.292Z,98955.09
2022-11-12T05:02:23.604Z,98948.00
2022-11-12T05:04:52.082Z,98946.47
2022-11-12T05:07:20.319Z,98944.75
2022-11-12T05:09:48.561Z,98940.78
2022-11-12T05:12:18.145Z,98934.66
2022-11-12T05:14:46.358Z,98936.47
2022-11-12T05:17:15.989Z,98935.72
2022-11-12T05:19:46.669Z,98933.78
2022-11-12T05:22:40.211Z,98926.22
2022-11-12T05:25:03.136Z,98930.09
2022-11-12T05:27:32.731Z,98926.31
2022-11-12T05:30:00.994Z,98925.25
2022-11-12T05:32:29.176Z,98919.56
2022-11-12T05:34:57.380Z,98915.00
2022-11-12T05:37:25.562Z,98914.38
2022-11-12T05:39:54.049Z,98921.69
2022-11-12T05:42:22.239Z,98910.94
2022-11-12T05:44:51.827Z,98912.41
2022-11-12T05:47:20.300Z,98905.25
2022-11-12T05:49:48.508Z,98903.53
2022-11-12T05:52:16.731Z,98909.38
2022-11-12T05:54:44.934Z,98907.63
2022-11-12T05:57:13.426Z,98911.19
2022-11-12T05:59:41.635Z,98909.00
2022-11-12T06:02:11.269Z,98905.97
2022-11-12T06:04:39.540Z,98909.69
2022-11-12T06:07:07.820Z,98906.16
2022-11-12T06:09:36.076Z,98907.78
2022-11-12T06:12:06.932Z,98913.81
2022-11-12T06:14:35.179Z,98909.53
2022-11-12T06:17:03.444Z,98909.31
2022-11-12T06:19:33.063Z,98914.31
2022-11-12T06:22:01.563Z,98909.72
2022-11-12T06:24:34.996Z,98914.91
2022-11-12T06:27:03.855Z,98915.94
2022-11-12T06:29:32.343Z,98920.72
2022-11-12T06:32:00.553Z,98919.22
2022-11-12T06:34:28.768Z,98924.81
2022-11-12T06:36:58.636Z,98913.56
2022-11-12T06:39:26.863Z,98918.94
2022-11-12T06:41:55.081Z,98919.69
2022-11-12T06:44:23.338Z,98925.06
2022-11-12T06:46:51.873Z,98927.66
2022-11-12T06:49:20.098Z,98928.03
2022-11-12T06:51:48.286Z,98931.19
2022-11-12T06:54:17.916Z,98938.25
2022-11-12T06:56:46.140Z,98941.97
2022-11-12T06:59:14.368Z,98939.03
2022-11-12T07:01:42.630Z,98941.72
2022-11-12T07:04:11.036Z,98940.72
2022-11-12T07:06:39.323Z,98944.09
2022-11-12T07:09:07.583Z,98949.53
2022-11-12T07:11:37.321Z,98957.38
2022-11-12T07:14:06.951Z,98959.91
2022-11-12T07:16:35.195Z,98964.94
2022-11-12T07:19:03.438Z,98955.28
2022-11-12T07:21:33.301Z,98954.94
2022-11-12T07:24:01.492Z,98961.63
2022-11-12T07:26:29.722Z,98962.69
2022-11-12T07:28:59.591Z,98963.53
2022-11-12T07:31:27.794Z,98951.81
2022-11-12T07:33:56.019Z,98960.69
2022-11-12T07:36:24.208Z,98954.09
2022-11-12T07:38:53.167Z,98956.53
2022-11-12T07:41:22.058Z,98957.50
2022-11-12T07:43:51.069Z,98960.47
2022-11-12T07:46:23.137Z,98966.81
2022-11-12T07:48:54.758Z,98968.44
2022-11-12T07:51:26.531Z,98969.84
2022-11-12T07:53:59.252Z,98974.03
2022-11-12T07:56:28.052Z,98969.19
2022-11-12T07:58:56.409Z,98983.72
2022-11-12T08:01:32.043Z,98977.88
2022-11-12T08:04:00.371Z,98975.78
2022-11-12T08:06:30.918Z,98976.97
2022-11-12T08:09:02.556Z,98978.09
2022-11-12T08:11:30.844Z,98981.53
2022-11-12T08:13:59.062Z,98980.47
2022-11-12T08:16:28.653Z,98983.84
2022-11-12T08:18:57.151Z,98983.13
2022-11-12T08:21:25.397Z,98979.69
2022-11-12T08:23:53.671Z,98991.28
2022-11-12T08:26:22.089Z,98983.69
2022-11-12T08:28:50.373Z,98979.28
2022-11-12T08:31:19.386Z,98979.78
2022-11-12T08:33:48.973Z,98974.69
2022-11-12T08:36:17.941Z,98975.59
2022-11-12T08:38:46.801Z,98970.72
2022-11-12T08:41:16.491Z,98962.00
2022-11-12T08:43:44.763Z,98968.47
2022-11-12T08:46:12.996Z,98961.94
2022-11-12T08:48:41.317Z,98970.75
2022-11-12T08:51:11.752Z,98966.91
2022-11-12T08:53:39.937Z,98966.19
2022-11-12T08:56:08.586Z,98970.56
2022-11-12T08:58:36.797Z,98961.19
2022-11-12T09:01:06.152Z,98963.16
2022-11-12T09:03:34.626Z,98963.91
2022-11-12T09:06:04.235Z,98964.91
2022-11-12T09:08:34.722Z,98964.56
2022-11-12T09:11:04.026Z,98969.88
2022-11-12T09:13:33.750Z,98970.75
2022-11-12T09:16:03.799Z,98969.13
2022-11-12T09:18:32.522Z,98966.59
2022-11-12T09:21:02.213Z,98966.25
2022-11-12T09:23:30.478Z,98967.63
2022-11-12T09:26:00.127Z,98970.66
2022-11-12T09:28:28.569Z,98961.09
2022-11-12T09:30:57.069Z,98961.59
2022-11-12T09:33:26.170Z,98957.84
2022-11-12T09:35:54.772Z,98964.81
2022-11-12T09:38:23.559Z,98962.78
2022-11-12T09:41:05.027Z,98967.59
2022-11-12T09:43:34.059Z,98953.19
2022-11-12T09:46:26.739Z,98956.69
2022-11-12T09:49:08.153Z,98949.50
2022-11-12T09:52:03.029Z,98953.25
2022-11-12T09:54:33.227Z,98951.19
2022-11-12T09:57:02.991Z,98952.09
2022-11-12T09:59:32.985Z,98948.53
2022-11-12T10:02:08.870Z,98951.41
2022-11-12T10:04:49.032Z,98946.47
2022-11-12T10:07:22.166Z,98941.97
2022-11-12T10:09:56.429Z,98943.13
2022-11-12T10:12:33.810Z,98947.47
2022-11-12T10:15:35.369Z,98942.09
2022-11-12T10:18:06.362Z,98941.47
2022-11-12T10:20:38.903Z,98936.56
2022-11-12T10:23:21.568Z,98934.47
2022-11-12T10:25:56.889Z,98933.50
2022-11-12T10:28:34.341Z,98940.56
2022-11-12T10:31:10.636Z,98951.31
2022-11-12T10:33:38.936Z,98937.13
2022-11-12T10:36:20.200Z,98940.28
2022-11-12T10:38:50.178Z,98950.47
2022-11-12T10:41:20.906Z,98950.50
2022-11-12T10:43:57.102Z,98944.41
2022-11-12T10:46:26.216Z,98947.94
2022-11-12T10:48:57.500Z,98942.25
2022-11-12T10:51:28.129Z,98941.00
2022-11-12T10:53:56.400Z,98945.16
2022-11-12T10:56:29.440Z,98938.59
2022-11-12T10:59:12.639Z,98942.63
2022-11-12T11:01:45.548Z,98932.50
2022-11-12T11:04:18.826Z,98933.78
2022-11-12T11:06:47.076Z,98922.19
2022-11-12T11:09:17.894Z,98916.59
2022-11-12T11:11:51.810Z,98916.00
2022-11-12T11:14:29.534Z,98921.66
2022-11-12T11:16:59.536Z,98909.28
2022-11-12T11:19:34.681Z,98915.28
2022-11-12T11:22:08.406Z,98914.28
2022-11-12T11:24:38.417Z,98918.13
2022-11-12T11:27:10.199Z,98909.13
2022-11-12T11:29:47.146Z,98916.13
2022-11-12T11:32:55.854Z,98902.19
2022-11-12T11:35:30.715Z,98907.31
2022-11-12T11:38:10.323Z,98903.50
2022-11-12T11:40:41.432Z,98904.59
2022-11-12T11:43:24.948Z,98897.75
2022-11-12T11:46:04.983Z,98894.91
2022-11-12T11:48:39.932Z,98897.59
2022-11-12T11:51:11.674Z,98890.91
2022-11-12T11:53:42.472Z,98893.81
2022-11-12T11:56:12.725Z,98888.97
2022-11-12T11:58:55.588Z,98886.41
2022-11-12T12:01:27.806Z,98882.59
2022-11-12T12:04:05.197Z,98879.88
2022-11-12T12:06:34.225Z,98878.72
2022-11-12T12:09:09.075Z,98882.56
2022-11-12T12:11:40.568Z,98875.00
2022-11-12T12:14:19.822Z,98863.75
2022-11-12T12:16:54.803Z,98873.06
2022-11-12T12:19:29.624Z,98874.13
2022-11-12T12:21:57.858Z,98867.81
2022-11-12T12:24:28.583Z,98864.72
2022-11-12T12:27:00.660Z,98860.50
2022-11-12T12:29:31.883Z,98859.25
2022-11-12T12:32:04.064Z,98868.06
2022-11-12T12:34:33.414Z,98860.78
2022-11-12T12:37:05.197Z,98856.41
2022-11-12T12:39:43.581Z,98851.78
2022-11-12T12:42:18.577Z,98858.59
2022-11-12T12:45:01.631Z,98853.84
2022-11-12T12:47:35.281Z,98851.69
2022-11-12T12:50:05.143Z,98849.16
2022-11-12T12:52:51.904Z,98852.41
2022-11-12T12:55:36.033Z,98854.41
2022-11-12T12:58:04.291Z,98846.47
2022-11-12T13:00:39.916Z,98845.63
2022-11-12T13:03:11.184Z,98846.34
2022-11-12T13:05:41.076Z,98838.81
2022-11-12T13:08:10.769Z,98839.19
2022-11-12T13:10:49.120Z,98833.47
2022-11-12T13:13:33.313Z,98836.06
2022-11-12T13:16:02.597Z,98827.25
2022-11-12T13:19:00.263Z,98832.75
2022-11-12T13:21:29.029Z,98838.81
2022-11-12T13:24:08.892Z,98834.59
2022-11-12T13:26:53.922Z,98836.59
2022-11-12T13:29:25.749Z,98833.47
2022-11-12T13:32:23.462Z,98831.06
2022-11-12T13:34:53.400Z,98835.47
2022-11-12T13:37:22.984Z,98833.59
2022-11-12T13:39:51.544Z,98841.72
2022-11-12T13:42:33.632Z,98830.00
2022-11-12T13:45:02.202Z,98845.56
2022-11-12T13:47:30.455Z,98836.25
2022-11-12T13:50:00.934Z,98841.63
2022-11-12T13:52:29.263Z,98834.88
2022-11-12T13:55:05.508Z,98837.59
2022-11-12T13:57:33.885Z,98846.06
2022-11-12T14:00:12.214Z,98840.06
2022-11-12T14:02:41.591Z,98830.72
2022-11-12T14:05:16.669Z,98836.28
2022-11-12T14:07:48.527Z,98827.31
2022-11-12T14:10:22.782Z,98828.94
2022-11-12T14:13:00.444Z,98831.75
2022-11-12T14:15:42.420Z,98833.94
2022-11-12T14:18:13.966Z,98836.50
2022-11-12T14:20:43.569Z,98838.75
2022-11-12T14:23:13.391Z,98833.28
2022-11-12T14:25:48.369Z,98835.88
2022-11-12T14:28:28.311Z,98835.88
2022-11-12T14:31:00.987Z,98826.53
2022-11-12T14:33:33.921Z,98825.38
2022-11-12T14:36:04.726Z,98823.22
2022-11-12T14:38:34.169Z,98825.59
2022-11-12T14:41:03.550Z,98822.63
2022-11-12T14:43:34.085Z,98819.78
2022-11-12T14:46:10.090Z,98822.38
2022-11-12T14:48:46.812Z,98821.56
2022-11-12T14:51:16.515Z,98820.00
2022-11-12T14:53:46.469Z,98816.56
2022-11-12T14:56:20.352Z,98813.44
2022-11-12T14:58:48.616Z,98813.56
2022-11-12T15:02:03.999Z,98811.63
2022-11-12T15:04:19.246Z,98808.06
2022-11-12T15:06:55.031Z,98797.06
2022-11-12T15:09:34.390Z,98801.19
2022-11-12T15:12:05.229Z,98805.00
2022-11-12T15:15:04.134Z,98798.13
2022-11-12T15:17:35.980Z,98803.22
2022-11-12T15:20:23.206Z,98809.97
2022-11-12T15:22:52.802Z,98800.56
2022-11-12T15:25:23.151Z,98796.38
2022-11-12T15:27:51.601Z,98799.38
2022-11-12T15:30:23.758Z,98798.75
2022-11-12T15:32:52.140Z,98791.16
2022-11-12T15:35:22.893Z,98791.53
2022-11-12T15:37:53.143Z,98781.72
2022-11-12T15:40:25.423Z,98775.59
2022-11-12T15:42:53.849Z,98780.72
2022-11-12T15:45:22.647Z,98777.78
2022-11-12T15:47:51.132Z,98777.81
2022-11-12T15:50:20.237Z,98772.88
2022-11-12T15:52:50.812Z,98779.38
2022-11-12T15:55:20.394Z,98770.94
2022-11-12T15:57:50.194Z,98772.75
2022-11-12T16:00:19.754Z,98765.78
2022-11-12T16:02:48.408Z,98771.38
2022-11-12T16:05:17.082Z,98778.97
2022-11-12T16:07:45.365Z,98773.34
2022-11-12T16:10:14.592Z,98769.28
2022-11-12T16:13:02.583Z,98771.72
2022-11-12T16:15:30.887Z,98764.63
2022-11-12T16:18:00.312Z,98764.47
2022-11-12T16:20:29.544Z,98762.53
2022-11-12T16:22:57.729Z,98764.75
2022-11-12T16:25:26.450Z,98762.50
2022-11-12T16:27:56.626Z,98769.16
2022-11-12T16:30:25.918Z,98758.78
2022-11-12T16:33:02.744Z,98757.06
2022-11-12T16:35:31.239Z,98767.34
2022-11-12T16:37:59.547Z,98765.50
2022-11-12T16:40:29.693Z,98763.38
2022-11-12T16:42:59.692Z,98768.50
2022-11-12T16:45:33.940Z,98769.16
2022-11-12T16:48:02.183Z,98768.00
2022-11-12T16:50:30.493Z,98763.50
2022-11-12T16:52:59.094Z,98768.97
2022-11-12T16:55:27.308Z,98775.44
2022-11-12T16:57:55.544Z,98774.44
2022-11-12T17:00:25.302Z,98776.50
2022-11-12T17:02:54.995Z,98774.03
2022-11-12T17:05:26.716Z,98778.25
2022-11-12T17:07:56.885Z,98774.31
2022-11-12T17:10:25.594Z,98777.22
2022-11-12T17:12:54.085Z,98775.28
2022-11-12T17:15:22.388Z,98779.72
2022-11-12T17:17:54.217Z,98778.25
2022-11-12T17:20:22.473Z,98794.06
2022-11-12T17:22:50.654Z,98772.41
2022-11-12T17:25:18.984Z,98771.38
2022-11-12T17:27:47.468Z,98768.56
2022-11-12T17:30:15.852Z,98764.06
2022-11-12T17:32:44.067Z,98758.69
2022-11-12T17:35:13.661Z,98762.34
2022-11-12T17:37:42.122Z,98762.03
2022-11-12T17:40:11.080Z,98761.59
2022-11-12T17:42:39.273Z,98752.56
2022-11-12T17:45:08.582Z,98744.00
2022-11-12T17:47:40.583Z,98735.25
2022-11-12T17:50:12.152Z,98739.56
2022-11-12T17:52:48.357Z,98740.81
2022-11-12T17:55:16.743Z,98741.88
2022-11-12T17:57:44.966Z,98738.97
2022-11-12T18:00:14.279Z,98744.63
2022-11-12T18:02:42.505Z,98732.34
2022-11-12T18:05:11.134Z,98738.03
2022-11-12T18:07:39.325Z,98738.31
2022-11-12T18:10:09.298Z,98740.69
2022-11-12T18:12:37.570Z,98733.09
2022-11-12T18:15:06.305Z,98733.63
2022-11-12T18:17:34.867Z,98729.72
2022-11-12T18:20:04.124Z,98735.25
2022-11-12T18:22:32.347Z,98732.28
2022-11-12T18:25:00.583Z,98729.38
2022-11-12T18:27:30.167Z,98736.22
2022-11-12T18:29:58.530Z,98730.84
2022-11-12T18:32:27.036Z,98732.56
2022-11-12T18:34:55.587Z,98732.56
2022-11-12T18:37:24.134Z,98735.97
2022-11-12T18:39:52.526Z,98729.13
2022-11-12T18:42:20.798Z,98733.38
2022-11-12T18:44:50.382Z,98726.31
2022-11-12T18:47:18.571Z,98726.13
2022-11-12T18:49:46.782Z,98724.00
2022-11-12T18:52:15.062Z,98717.03
2022-11-12T18:54:43.250Z,98714.00
2022-11-12T18:57:11.460Z,98704.94
2022-11-12T18:59:39.730Z,98704.94
2022-11-12T19:02:11.265Z,98700.13
2022-11-12T19:04:45.052Z,98703.47
2022-11-12T19:07:14.070Z,98701.31
2022-11-12T19:09:42.425Z,98697.97
2022-11-12T19:12:10.953Z,98703.75
2022-11-12T19:14:39.159Z,98695.16
2022-11-12T19:17:08.754Z,98697.41
2022-11-12T19:19:37.114Z,98694.91
2022-11-12T19:22:05.400Z,98689.34
2022-11-12T19:24:33.708Z,98697.41
2022-11-12T19:27:01.980Z,98697.34
2022-11-12T19:29:31.139Z,98694.41
2022-11-12T19:31:59.463Z,98700.78
2022-11-12T19:34:29.961Z,98698.47
2022-11-12T19:37:26.626Z,98689.78
2022-11-12T19:39:46.807Z,98695.16
2022-11-12T19:42:15.191Z,98700.13
2022-11-12T19:44:43.413Z,98698.41
2022-11-12T19:47:11.893Z,98699.16
2022-11-12T19:49:41.503Z,98690.00
2022-11-12T19:52:09.927Z,98682.81
2022-11-12T19:54:38.295Z,98681.19
2022-11-12T19:57:07.067Z,98681.19
2022-11-12T19:59:35.347Z,98675.22
2022-11-12T20:02:03.552Z,98676.06
2022-11-12T20:04:32.106Z,98680.59
2022-11-12T20:07:01.833Z,98684.16
2022-11-12T20:09:30.247Z,98680.81
2022-11-12T20:11:58.464Z,98681.78
2022-11-12T20:14:26.660Z,98671.41
2022-11-12T20:16:55.159Z,98675.06
2022-11-12T20:19:23.475Z,98677.22
2022-11-12T20:21:51.675Z,98671.81
2022-11-12T20:24:21.259Z,98676.63
2022-11-12T20:26:49.465Z,98670.63
2022-11-12T20:29:17.952Z,98661.41
2022-11-12T20:31:46.234Z,98659.81
2022-11-12T20:34:14.457Z,98660.19
2022-11-12T20:36:42.921Z,98655.66
2022-11-12T20:39:11.135Z,98649.75
2022-11-12T20:41:40.978Z,98654.75
2022-11-12T20:44:09.293Z,98654.53
2022-11-12T20:46:37.803Z,98652.06
2022-11-12T20:49:08.662Z,98658.78
2022-11-12T20:51:37.200Z,98653.41
2022-11-12T20:54:05.491Z,98646.53
2022-11-12T20:56:33.712Z,98649.41
2022-11-12T20:59:03.371Z,98650.41
2022-11-12T21:01:32.270Z,98648.06
2022-11-12T21:04:00.585Z,98648.53
2022-11-12T21:06:29.578Z,98651.63
2022-11-12T21:08:59.874Z,98651.72
2022-11-12T21:11:28.398Z,98650.25
2022-11-12T21:13:56.593Z,98647.56
2022-11-12T21:16:26.174Z,98644.25
2022-11-12T21:18:54.365Z,98639.38
2022-11-12T21:21:22.578Z,98641.66
2022-11-12T21:23:52.100Z,98633.38
2022-11-12T21:26:21.043Z,98630.19
2022-11-12T21:28:49.995Z,98631.03
2022-11-12T21:31:19.066Z,98623.84
2022-11-12T21:33:51.464Z,98624.31
2022-11-12T21:36:20.375Z,98625.78
2022-11-12T21:38:48.940Z,98619.63
2022-11-12T21:41:17.980Z,98623.34
2022-11-12T21:43:46.298Z,98616.84
2022-11-12T21:46:15.904Z,98621.50
2022-11-12T21:48:44.150Z,98615.16
2022-11-12T21:51:14.861Z,98613.56
2022-11-12T21:53:43.598Z,98610.75
2022-11-12T21:56:12.553Z,98610.75
2022-11-12T21:58:40.743Z,98603.50
2022-11-12T22:01:10.252Z,98593.63
2022-11-12T22:03:38.836Z,98593.63
2022-11-12T22:06:07.445Z,98595.09
2022-11-12T22:08:37.030Z,98595.09
2022-11-12T22:11:06.292Z,98596.69
2022-11-12T22:13:34.594Z,98592.47
2022-11-12T22:16:05.881Z,98589.44
2022-11-12T22:18:35.328Z,98590.06
2022-11-12T22:21:04.447Z,98587.72
2022-11-12T22:23:36.061Z,98581.72
2022-11-12T22:26:06.046Z,98586.22
2022-11-12T22:28:35.129Z,98585.25
2022-11-12T22:31:04.924Z,98590.75
2022-11-12T22:33:33.108Z,98583.59
2022-11-12T22:36:02.908Z,98578.88
2022-11-12T22:38:35.900Z,98575.19
2022-11-12T22:41:06.877Z,98571.53
2022-11-12T22:43:35.069Z,98574.34
2022-11-12T22:46:06.205Z,98568.56
2022-11-12T22:48:34.510Z,98570.06
2022-11-12T22:51:02.797Z,98572.22
2022-11-12T22:53:31.462Z,98571.78
2022-11-12T22:56:03.355Z,98566.63
2022-11-12T22:58:35.740Z,98573.81
2022-11-12T23:01:04.372Z,98576.88
2022-11-12T23:03:32.649Z,98567.09
2022-11-12T23:06:00.986Z,98569.38
2022-11-12T23:08:29.691Z,98568.81
2022-11-12T23:10:58.260Z,98567.09
2022-11-12T23:13:26.969Z,98562.91
2022-11-12T23:15:56.556Z,98574.41
2022-11-12T23:18:26.365Z,98568.75
2022-11-12T23:20:55.822Z,98558.59
2022-11-12T23:23:24.149Z,98561.03
2022-11-12T23:25:52.358Z,98555.50
2022-11-12T23:28:20.611Z,98557.69
2022-11-12T23:30:51.322Z,98547.69
2022-11-12T23:33:21.916Z,98552.31
2022-11-12T23:35:50.143Z,98556.34
2022-11-12T23:38:18.549Z,98556.38
2022-11-12T23:40:54.093Z,98553.31
2022-11-12T23:43:22.680Z,98547.56
2022-11-12T23:45:52.137Z,98547.69
2022-11-12T23:48:21.738Z,98546.72
2022-11-12T23:50:50.769Z,98545.00
2022-11-12T23:53:19.216Z,98540.69
2022-11-12T23:55:47.447Z,98537.81
2022-11-12T23:58:15.659Z,98536.31
